Time;durP1;ratioP1;P1;durP2;ratioP2;P2;SDS_P1;SDS_P2;PMS_P1;PMS_P2;Temp;Humidity;BMP_temperature;BMP_pressure;BME280_temperature;BME280_humidity;BME280_pressure;Samples;Min_cycle;Max_cycle;Signal;HPM_P1;HPM_P2
2022/07/07 00:00:56;;;;;;;385.17;199.68;;;;;;;-140.79;100.00;63287.88;5015742;28;20049;-52
2022/07/07 00:03:21;;;;;;;385.48;200.93;;;;;;;-140.79;100.00;63287.88;5015374;28;20554;-52
2022/07/07 00:05:47;;;;;;;391.70;205.95;;;;;;;-140.79;100.00;63287.88;4999193;28;20036;-53
2022/07/07 00:08:12;;;;;;;404.92;212.82;;;;;;;-140.79;100.00;63287.88;4995473;28;20549;-52
2022/07/07 00:10:38;;;;;;;410.35;216.10;;;;;;;-140.79;100.00;63287.88;5015047;28;20117;-52
2022/07/07 00:13:03;;;;;;;409.20;217.13;;;;;;;-140.79;100.00;63287.88;5015992;28;20476;-53
2022/07/07 00:15:29;;;;;;;411.10;216.93;;;;;;;-140.79;100.00;63287.88;5015712;28;20034;-52
2022/07/07 00:17:54;;;;;;;390.58;203.73;;;;;;;-140.79;100.00;63287.88;5021186;28;20034;-53
2022/07/07 00:20:19;;;;;;;417.90;221.82;;;;;;;-140.79;100.00;63287.88;5020526;28;20128;-53
2022/07/07 00:22:45;;;;;;;414.85;221.00;;;;;;;-140.79;100.00;63287.88;5018461;28;20033;-52
2022/07/07 00:25:10;;;;;;;407.00;214.95;;;;;;;-140.79;100.00;63287.88;5020232;28;20029;-54
2022/07/07 00:27:37;;;;;;;411.33;217.77;;;;;;;-140.79;100.00;63287.88;5020038;28;20695;-52
2022/07/07 00:30:03;;;;;;;410.83;216.60;;;;;;;-140.79;100.00;63287.88;5020548;28;20030;-52
2022/07/07 00:32:29;;;;;;;399.95;209.20;;;;;;;-140.79;100.00;63287.88;5020690;28;20870;-53
2022/07/07 00:34:54;;;;;;;408.17;216.18;;;;;;;-140.79;100.00;63287.88;5015817;28;20095;-53
2022/07/07 00:37:20;;;;;;;414.25;219.95;;;;;;;-140.79;100.00;63287.88;5018335;28;20447;-53
2022/07/07 00:39:45;;;;;;;411.13;218.85;;;;;;;-140.79;100.00;63287.88;5021825;28;20060;-52
2022/07/07 00:42:14;;;;;;;411.05;217.57;;;;;;;-140.79;100.00;63287.88;5018648;28;20028;-52
2022/07/07 00:44:41;;;;;;;417.75;221.35;;;;;;;-140.79;100.00;63287.88;5018974;28;20029;-52
2022/07/07 00:47:06;;;;;;;409.05;217.48;;;;;;;-140.79;100.00;63287.88;5020444;28;20094;-53
2022/07/07 00:49:32;;;;;;;418.15;221.75;;;;;;;-140.79;100.00;63287.88;5019625;28;20029;-54
2022/07/07 00:51:57;;;;;;;431.33;232.82;;;;;;;-140.79;100.00;63287.88;5021059;28;20028;-52
2022/07/07 00:54:23;;;;;;;418.15;223.48;;;;;;;-140.79;100.00;63287.88;5022011;28;20029;-53
2022/07/07 00:56:48;;;;;;;417.70;223.07;;;;;;;-140.79;100.00;63287.88;5018481;28;20025;-54
2022/07/07 00:59:14;;;;;;;407.98;214.98;;;;;;;-140.79;100.00;63287.88;5020563;28;20017;-54
2022/07/07 01:01:40;;;;;;;420.73;225.07;;;;;;;-140.79;100.00;63287.88;5019748;28;20095;-53
2022/07/07 01:04:07;;;;;;;415.60;222.65;;;;;;;-140.79;100.00;63287.88;5019012;28;20392;-53
2022/07/07 01:06:33;;;;;;;417.17;224.75;;;;;;;-140.79;100.00;63287.88;5021638;28;20057;-54
2022/07/07 01:08:58;;;;;;;425.38;229.02;;;;;;;-140.79;100.00;63287.88;5020433;28;20056;-52
2022/07/07 01:11:24;;;;;;;425.35;228.13;;;;;;;-140.79;100.00;63287.88;5001975;28;20527;-52
2022/07/07 01:13:49;;;;;;;409.50;218.50;;;;;;;-140.79;100.00;63287.88;5019282;28;20033;-53
2022/07/07 01:16:15;;;;;;;413.83;221.15;;;;;;;-140.79;100.00;63287.88;5020328;28;20037;-54
2022/07/07 01:18:41;;;;;;;411.35;220.10;;;;;;;-140.79;100.00;63287.88;5020071;28;20514;-52
2022/07/07 01:21:07;;;;;;;408.52;218.95;;;;;;;-140.79;100.00;63287.88;5018016;28;20037;-52
2022/07/07 01:23:32;;;;;;;402.30;212.02;;;;;;;-140.79;100.00;63287.88;4997457;28;20324;-52
2022/07/07 01:25:57;;;;;;;402.38;212.82;;;;;;;-140.79;100.00;63287.88;5019756;28;20477;-52
2022/07/07 01:28:23;;;;;;;410.90;219.75;;;;;;;-140.79;100.00;63287.88;5017470;28;20029;-52
2022/07/07 01:30:48;;;;;;;404.55;213.18;;;;;;;-140.79;100.00;63287.88;5017735;28;20025;-52
2022/07/07 01:33:15;;;;;;;418.08;224.38;;;;;;;-140.79;100.00;63287.88;5020444;28;20017;-51
2022/07/07 01:35:41;;;;;;;410.35;217.95;;;;;;;-140.79;100.00;63287.88;5020504;28;20040;-52
2022/07/07 01:38:06;;;;;;;415.23;221.60;;;;;;;-140.79;100.00;63287.88;5017432;28;20043;-53
2022/07/07 01:40:32;;;;;;;412.35;220.55;;;;;;;-140.79;100.00;63287.88;5018887;28;20504;-52
2022/07/07 01:42:57;;;;;;;426.55;232.05;;;;;;;-140.79;100.00;63287.88;5018149;28;20072;-51
2022/07/07 01:45:23;;;;;;;416.83;224.15;;;;;;;-140.79;100.00;63287.88;5020504;28;20037;-53
2022/07/07 01:47:48;;;;;;;440.30;240.93;;;;;;;-140.79;100.00;63287.88;5015811;28;20040;-57
2022/07/07 01:50:14;;;;;;;434.33;235.82;;;;;;;-140.79;100.00;63287.88;5015289;28;20037;-57
2022/07/07 01:52:39;;;;;;;443.52;244.48;;;;;;;-140.79;100.00;63287.88;5018845;28;20021;-53
2022/07/07 01:55:05;;;;;;;405.00;215.32;;;;;;;-140.79;100.00;63287.88;5016477;28;20613;-57
2022/07/07 01:57:31;;;;;;;436.13;237.23;;;;;;;-140.79;100.00;63287.88;5017829;28;20172;-53
2022/07/07 01:59:56;;;;;;;438.83;240.30;;;;;;;-140.79;100.00;63287.88;5019857;28;20394;-52
2022/07/07 02:02:22;;;;;;;433.75;237.95;;;;;;;-140.79;100.00;63287.88;5018292;28;20025;-58
2022/07/07 02:04:47;;;;;;;430.05;233.80;;;;;;;-140.79;100.00;63287.88;5017894;28;20033;-56
2022/07/07 02:07:13;;;;;;;430.60;233.70;;;;;;;-140.79;100.00;63287.88;5017872;28;20492;-52
2022/07/07 02:09:38;;;;;;;414.02;221.40;;;;;;;-140.79;100.00;63287.88;5017275;28;20758;-52
2022/07/07 02:12:04;;;;;;;415.77;220.82;;;;;;;-140.79;100.00;63287.88;5020190;28;20075;-52
2022/07/07 02:14:29;;;;;;;423.65;228.63;;;;;;;-140.79;100.00;63287.88;5019142;28;20472;-53
2022/07/07 02:16:55;;;;;;;414.33;221.45;;;;;;;-140.79;100.00;63287.88;5017703;28;20029;-53
2022/07/07 02:19:20;;;;;;;405.80;214.98;;;;;;;-140.79;100.00;63287.88;5018641;28;20025;-53
2022/07/07 02:21:46;;;;;;;411.60;220.10;;;;;;;-140.79;100.00;63287.88;5018262;28;20034;-52
2022/07/07 02:24:11;;;;;;;408.52;217.07;;;;;;;-140.79;100.00;63287.88;5020539;28;20357;-52
2022/07/07 02:26:37;;;;;;;409.88;218.27;;;;;;;-140.79;100.00;63287.88;5020060;28;20037;-52
2022/07/07 02:29:03;;;;;;;403.48;212.55;;;;;;;-140.79;100.00;63287.88;5017611;28;20122;-53
2022/07/07 02:31:28;;;;;;;413.52;219.68;;;;;;;-140.79;100.00;63287.88;4999194;28;20037;-54
2022/07/07 02:33:54;;;;;;;396.95;207.57;;;;;;;-140.79;100.00;63287.88;5018129;28;20029;-54
2022/07/07 02:36:19;;;;;;;412.88;220.20;;;;;;;-140.79;100.00;63287.88;5018997;28;20025;-54
2022/07/07 02:38:45;;;;;;;401.25;212.10;;;;;;;-140.79;100.00;63287.88;5008484;28;20507;-54
2022/07/07 02:41:11;;;;;;;419.30;226.40;;;;;;;-140.79;100.00;63287.88;4999613;28;20033;-52
2022/07/07 02:43:36;;;;;;;398.60;210.32;;;;;;;-140.79;100.00;63287.88;5019786;28;20144;-58
2022/07/07 02:46:03;;;;;;;398.83;211.20;;;;;;;-140.79;100.00;63287.88;5000885;28;20147;-54
2022/07/07 02:48:29;;;;;;;411.08;219.80;;;;;;;-140.79;100.00;63287.88;5019795;28;20052;-51
2022/07/07 02:50:54;;;;;;;413.63;221.00;;;;;;;-140.79;100.00;63287.88;5021039;28;20029;-54
2022/07/07 02:53:21;;;;;;;415.88;222.65;;;;;;;-140.79;100.00;63287.88;5017423;28;20163;-54
2022/07/07 02:55:47;;;;;;;415.67;222.82;;;;;;;-140.79;100.00;63287.88;5018430;28;20116;-52
2022/07/07 02:58:13;;;;;;;417.83;225.82;;;;;;;-140.79;100.00;63287.88;5017423;28;20516;-52
2022/07/07 03:00:39;;;;;;;407.70;216.52;;;;;;;-140.79;100.00;63287.88;5019473;28;20025;-52
2022/07/07 03:03:05;;;;;;;414.40;222.23;;;;;;;-140.79;100.00;63287.88;5019186;28;20036;-54
2022/07/07 03:05:31;;;;;;;427.00;233.10;;;;;;;-140.79;100.00;63287.88;5017864;28;20579;-55
2022/07/07 03:07:57;;;;;;;442.75;244.52;;;;;;;-140.79;100.00;63287.88;5016939;28;20018;-56
2022/07/07 03:10:22;;;;;;;422.50;228.82;;;;;;;-140.79;100.00;63287.88;5017736;28;20052;-53
2022/07/07 03:12:48;;;;;;;436.23;237.15;;;;;;;-140.79;100.00;63287.88;4999584;28;20017;-52
2022/07/07 03:15:13;;;;;;;426.17;230.60;;;;;;;-140.79;100.00;63287.88;5015963;28;20148;-53
2022/07/07 03:17:43;;;;;;;428.65;233.20;;;;;;;-140.79;100.00;63287.88;4990512;28;20033;-54
2022/07/07 03:20:10;;;;;;;433.48;235.70;;;;;;;-140.79;100.00;63287.88;4996402;28;20730;-53
2022/07/07 03:22:35;;;;;;;428.83;233.45;;;;;;;-140.79;100.00;63287.88;5007354;28;20033;-52
2022/07/07 03:25:01;;;;;;;425.17;229.38;;;;;;;-140.79;100.00;63287.88;5016709;28;20574;-51
2022/07/07 03:27:26;;;;;;;417.85;224.13;;;;;;;-140.79;100.00;63287.88;5015264;28;20021;-51
2022/07/07 03:29:51;;;;;;;410.90;219.48;;;;;;;-140.79;100.00;63287.88;5014422;28;20022;-52
2022/07/07 03:32:17;;;;;;;421.77;227.68;;;;;;;-140.79;100.00;63287.88;5017895;28;20055;-51
2022/07/07 03:34:42;;;;;;;416.55;224.27;;;;;;;-140.79;100.00;63287.88;5014550;28;20029;-53
2022/07/07 03:37:08;;;;;;;419.10;226.98;;;;;;;-140.79;100.00;63287.88;5019239;28;20032;-53
2022/07/07 03:39:33;;;;;;;423.00;229.80;;;;;;;-140.79;100.00;63287.88;5018223;28;20540;-53
2022/07/07 03:41:59;;;;;;;429.10;232.65;;;;;;;-140.79;100.00;63287.88;4994650;28;20362;-54
2022/07/07 03:44:25;;;;;;;414.75;222.90;;;;;;;-140.79;100.00;63287.88;5014103;28;20084;-53
2022/07/07 03:46:50;;;;;;;421.13;226.77;;;;;;;-140.79;100.00;63287.88;5018557;28;20124;-53
2022/07/07 03:49:16;;;;;;;421.80;227.43;;;;;;;-140.79;100.00;63287.88;5016354;28;20191;-52
2022/07/07 03:51:41;;;;;;;428.42;234.07;;;;;;;-140.79;100.00;63287.88;5020010;28;20579;-57
2022/07/07 03:54:07;;;;;;;428.33;232.98;;;;;;;-140.79;100.00;63287.88;5021724;28;20479;-51
2022/07/07 03:56:33;;;;;;;414.08;220.68;;;;;;;-140.79;100.00;63287.88;5021598;28;20504;-53
2022/07/07 03:58:58;;;;;;;424.15;228.73;;;;;;;-140.79;100.00;63287.88;5020253;28;20025;-55
2022/07/07 04:01:24;;;;;;;420.65;224.25;;;;;;;-140.79;100.00;63287.88;5020385;28;20041;-50
2022/07/07 04:03:49;;;;;;;436.75;237.55;;;;;;;-140.79;100.00;63287.88;5019850;28;20493;-51
2022/07/07 04:06:14;;;;;;;421.08;226.88;;;;;;;-140.79;100.00;63287.88;5017817;28;20029;-54
2022/07/07 04:08:40;;;;;;;386.40;200.60;;;;;;;-140.79;100.00;63287.88;5020654;28;20033;-53
2022/07/07 04:11:05;;;;;;;401.13;212.18;;;;;;;-140.79;100.00;63287.88;5018708;28;20483;-53
2022/07/07 04:13:31;;;;;;;392.35;205.38;;;;;;;-140.79;100.00;63287.88;5014351;28;20026;-52
2022/07/07 04:15:56;;;;;;;388.73;203.18;;;;;;;-140.79;100.00;63287.88;5004871;28;20036;-54
2022/07/07 04:18:22;;;;;;;386.83;203.40;;;;;;;-140.79;100.00;63287.88;5009743;28;20583;-52
2022/07/07 04:20:48;;;;;;;383.40;198.55;;;;;;;-140.79;100.00;63287.88;5018552;28;20139;-53
2022/07/07 04:23:13;;;;;;;383.45;198.75;;;;;;;-140.79;100.00;63287.88;5019175;28;20487;-53
2022/07/07 04:25:39;;;;;;;396.33;210.40;;;;;;;-140.79;100.00;63287.88;5022829;28;20033;-52
2022/07/07 04:28:04;;;;;;;386.40;201.15;;;;;;;-140.79;100.00;63287.88;5017548;28;20037;-53
2022/07/07 04:30:30;;;;;;;393.52;206.55;;;;;;;-140.79;100.00;63287.88;5015691;28;20029;-53
2022/07/07 04:32:55;;;;;;;388.63;202.98;;;;;;;-140.79;100.00;63287.88;5003384;28;20032;-52
2022/07/07 04:35:21;;;;;;;416.27;220.57;;;;;;;-140.79;100.00;63287.88;5009494;28;20053;-54
2022/07/07 04:37:46;;;;;;;420.13;227.23;;;;;;;-140.79;100.00;63287.88;5016647;28;20061;-56
2022/07/07 04:40:12;;;;;;;406.30;214.30;;;;;;;-140.79;100.00;63287.88;5004020;28;20460;-52
2022/07/07 04:42:37;;;;;;;413.27;218.80;;;;;;;-140.79;100.00;63287.88;5004146;28;20088;-54
2022/07/07 04:45:03;;;;;;;426.38;231.23;;;;;;;-140.79;100.00;63287.88;5005354;28;20115;-54
2022/07/07 04:47:29;;;;;;;403.92;213.93;;;;;;;-140.79;100.00;63287.88;5004659;28;20037;-55
2022/07/07 04:49:54;;;;;;;387.83;203.07;;;;;;;-140.79;100.00;63287.88;5014644;28;20040;-56
2022/07/07 04:52:19;;;;;;;405.17;213.75;;;;;;;-140.79;100.00;63287.88;5002557;28;20684;-52
2022/07/07 04:54:45;;;;;;;413.20;220.13;;;;;;;-140.79;100.00;63287.88;5020138;28;20035;-54
2022/07/07 04:57:11;;;;;;;414.40;220.10;;;;;;;-140.79;100.00;63287.88;5020299;28;20038;-58
2022/07/07 04:59:36;;;;;;;405.08;213.35;;;;;;;-140.79;100.00;63287.88;5000378;28;20021;-56
2022/07/07 05:02:02;;;;;;;391.58;203.73;;;;;;;-140.79;100.00;63287.88;5017673;28;20044;-62
2022/07/07 05:04:27;;;;;;;388.13;202.35;;;;;;;-140.79;100.00;63287.88;5013939;28;20059;-55
2022/07/07 05:06:53;;;;;;;407.85;215.48;;;;;;;-140.79;100.00;63287.88;4998873;28;20053;-53
2022/07/07 05:09:18;;;;;;;412.38;220.35;;;;;;;-140.79;100.00;63287.88;5019318;28;20040;-56
2022/07/07 05:11:44;;;;;;;419.08;222.18;;;;;;;-140.79;100.00;63287.88;5019714;28;20029;-59
2022/07/07 05:14:09;;;;;;;427.92;231.57;;;;;;;-140.79;100.00;63287.88;5019160;28;20017;-55
2022/07/07 05:16:35;;;;;;;465.73;258.55;;;;;;;-140.79;100.00;63287.88;5010819;28;20044;-55
2022/07/07 05:19:00;;;;;;;467.85;261.10;;;;;;;-140.79;100.00;63287.88;5010187;28;20021;-55
2022/07/07 05:21:26;;;;;;;475.60;266.33;;;;;;;-140.79;100.00;63287.88;5017840;28;20079;-58
2022/07/07 05:23:51;;;;;;;468.38;260.58;;;;;;;-140.79;100.00;63287.88;5000153;28;20028;-53
2022/07/07 05:26:17;;;;;;;476.92;266.65;;;;;;;-140.79;100.00;63287.88;5015266;28;20087;-55
2022/07/07 05:28:42;;;;;;;459.08;252.85;;;;;;;-140.79;100.00;63287.88;5009894;28;20037;-54
2022/07/07 05:31:13;;;;;;;456.75;250.60;;;;;;;-140.79;100.00;63287.88;5014827;28;20029;-57
2022/07/07 05:33:39;;;;;;;478.20;265.95;;;;;;;-140.79;100.00;63287.88;5014876;28;20033;-59
2022/07/07 05:36:05;;;;;;;471.60;262.38;;;;;;;-140.79;100.00;63287.88;5016504;28;20042;-57
2022/07/07 05:38:31;;;;;;;480.92;270.55;;;;;;;-140.79;100.00;63287.88;5015755;28;20094;-54
2022/07/07 05:40:56;;;;;;;469.17;258.10;;;;;;;-140.79;100.00;63287.88;5017032;28;20753;-55
2022/07/07 05:43:22;;;;;;;472.23;262.45;;;;;;;-140.79;100.00;63287.88;5018140;28;20829;-53
2022/07/07 05:45:47;;;;;;;467.45;257.25;;;;;;;-140.79;100.00;63287.88;5013493;28;20080;-53
2022/07/07 05:48:13;;;;;;;474.73;263.60;;;;;;;-140.79;100.00;63287.88;5008735;28;20041;-53
2022/07/07 05:50:38;;;;;;;463.75;256.38;;;;;;;-140.79;100.00;63287.88;5017669;28;20101;-54
2022/07/07 05:53:04;;;;;;;466.70;256.38;;;;;;;-140.79;100.00;63287.88;5015076;28;20857;-55
2022/07/07 05:55:30;;;;;;;469.10;259.58;;;;;;;-140.79;100.00;63287.88;5015382;28;20017;-61
2022/07/07 05:57:56;;;;;;;470.52;260.23;;;;;;;-140.79;100.00;63287.88;5009475;28;20048;-54
2022/07/07 06:00:23;;;;;;;475.65;261.40;;;;;;;-140.79;100.00;63287.88;4994596;28;20017;-57
2022/07/07 06:02:49;;;;;;;469.30;259.02;;;;;;;-140.79;100.00;63287.88;5013711;28;20116;-59
2022/07/07 06:05:14;;;;;;;464.88;255.85;;;;;;;-140.79;100.00;63287.88;5018601;28;20041;-60
2022/07/07 06:07:40;;;;;;;471.10;258.77;;;;;;;-140.79;100.00;63287.88;5014317;28;21529;-54
2022/07/07 06:10:06;;;;;;;471.05;259.42;;;;;;;-140.79;100.00;63287.88;4999070;28;20025;-58
2022/07/07 06:12:32;;;;;;;468.17;258.15;;;;;;;-140.79;100.00;63287.88;5012958;28;20018;-60
2022/07/07 06:14:58;;;;;;;457.30;249.63;;;;;;;-140.79;100.00;63287.88;5014931;28;20029;-57
2022/07/07 06:17:23;;;;;;;456.85;248.73;;;;;;;-140.79;100.00;63287.88;5011083;28;20483;-56
2022/07/07 06:19:49;;;;;;;463.98;254.60;;;;;;;-140.79;100.00;63287.88;5015193;28;20025;-57
2022/07/07 06:22:14;;;;;;;447.27;241.25;;;;;;;-140.79;100.00;63287.88;5008603;28;20646;-57
2022/07/07 06:24:41;;;;;;;449.80;243.10;;;;;;;-140.79;100.00;63287.88;5009790;28;20087;-54
2022/07/07 06:27:06;;;;;;;456.33;247.10;;;;;;;-140.79;100.00;63287.88;5012907;28;20025;-54
2022/07/07 06:29:32;;;;;;;468.00;258.13;;;;;;;-140.79;100.00;63287.88;5013577;28;20044;-54
2022/07/07 06:31:57;;;;;;;472.75;259.88;;;;;;;-140.79;100.00;63287.88;5005135;28;20576;-59
2022/07/07 06:34:23;;;;;;;464.27;255.48;;;;;;;-140.79;100.00;63287.88;5005629;28;20036;-59
2022/07/07 06:36:48;;;;;;;455.30;247.20;;;;;;;-140.79;100.00;63287.88;5004080;28;20504;-60
2022/07/07 06:39:14;;;;;;;449.77;245.00;;;;;;;-140.79;100.00;63287.88;5005668;28;20034;-58
2022/07/07 06:41:39;;;;;;;455.05;248.02;;;;;;;-140.79;100.00;63287.88;5018458;28;20101;-53
2022/07/07 06:44:05;;;;;;;443.77;239.00;;;;;;;-140.79;100.00;63287.88;5015151;28;20047;-54
2022/07/07 06:46:31;;;;;;;438.15;233.98;;;;;;;-140.79;100.00;63287.88;5019881;28;20049;-54
2022/07/07 06:48:57;;;;;;;437.70;235.38;;;;;;;-140.79;100.00;63287.88;5019082;28;20563;-53
2022/07/07 06:51:22;;;;;;;444.08;240.95;;;;;;;-140.79;100.00;63287.88;5022535;28;20109;-53
2022/07/07 06:53:48;;;;;;;446.25;241.70;;;;;;;-140.79;100.00;63287.88;5021469;28;20025;-53
2022/07/07 06:56:13;;;;;;;450.02;244.48;;;;;;;-140.79;100.00;63287.88;5021270;28;20083;-55
2022/07/07 06:58:38;;;;;;;455.65;248.73;;;;;;;-140.79;100.00;63287.88;5020644;28;20022;-54
2022/07/07 07:01:04;;;;;;;483.35;267.13;;;;;;;-140.79;100.00;63287.88;5016707;28;20515;-53
2022/07/07 07:03:30;;;;;;;457.05;248.15;;;;;;;-140.79;100.00;63287.88;5013304;28;20104;-57
2022/07/07 07:05:55;;;;;;;465.17;256.88;;;;;;;-140.79;100.00;63287.88;5017839;28;20018;-52
2022/07/07 07:08:21;;;;;;;450.73;244.70;;;;;;;-140.79;100.00;63287.88;5015152;28;20056;-55
2022/07/07 07:10:46;;;;;;;443.20;240.48;;;;;;;-140.79;100.00;63287.88;5020295;28;20469;-54
2022/07/07 07:13:12;;;;;;;454.08;246.27;;;;;;;-140.79;100.00;63287.88;5017572;28;20096;-54
2022/07/07 07:15:39;;;;;;;451.60;245.20;;;;;;;-140.79;100.00;63287.88;4993890;28;20081;-56
2022/07/07 07:18:05;;;;;;;460.60;251.45;;;;;;;-140.79;100.00;63287.88;4994550;28;20681;-56
2022/07/07 07:20:31;;;;;;;460.10;248.82;;;;;;;-140.79;100.00;63287.88;5015403;28;20029;-55
2022/07/07 07:22:56;;;;;;;459.55;251.25;;;;;;;-140.79;100.00;63287.88;5001659;28;20445;-53
2022/07/07 07:25:22;;;;;;;463.60;256.35;;;;;;;-140.79;100.00;63287.88;5003592;28;20033;-54
2022/07/07 07:27:47;;;;;;;468.02;257.33;;;;;;;-140.79;100.00;63287.88;5001174;28;20029;-53
2022/07/07 07:30:14;;;;;;;464.70;255.77;;;;;;;-140.79;100.00;63287.88;5002736;28;20033;-55
2022/07/07 07:32:40;;;;;;;468.92;259.90;;;;;;;-140.79;100.00;63287.88;5001373;28;20040;-54
2022/07/07 07:35:05;;;;;;;474.58;262.85;;;;;;;-140.79;100.00;63287.88;5006047;28;20026;-54
2022/07/07 07:37:31;;;;;;;476.83;265.95;;;;;;;-140.79;100.00;63287.88;5007071;28;20022;-54
2022/07/07 07:39:56;;;;;;;480.63;268.42;;;;;;;-140.79;100.00;63287.88;5008409;28;20018;-54
2022/07/07 07:42:22;;;;;;;474.63;265.42;;;;;;;-140.79;100.00;63287.88;5009117;28;20052;-54
2022/07/07 07:47:31;;;;;;;492.17;276.65;;;;;;;-140.79;100.00;63287.88;5005664;28;20117;-55
2022/07/07 07:49:56;;;;;;;475.08;265.13;;;;;;;-140.79;100.00;63287.88;4986897;28;20121;-55
2022/07/07 07:52:22;;;;;;;462.35;253.02;;;;;;;-140.79;100.00;63287.88;5014540;28;20503;-53
2022/07/07 07:54:47;;;;;;;472.70;262.20;;;;;;;-140.79;100.00;63287.88;5007738;28;20500;-54
2022/07/07 07:57:13;;;;;;;452.75;246.43;;;;;;;-140.79;100.00;63287.88;5010643;28;20034;-53
2022/07/07 07:59:38;;;;;;;448.55;241.70;;;;;;;-140.79;100.00;63287.88;5012549;28;20544;-54
2022/07/07 08:02:04;;;;;;;444.13;237.68;;;;;;;-140.79;100.00;63287.88;5009829;28;20028;-55
2022/07/07 08:04:29;;;;;;;432.83;231.75;;;;;;;-140.79;100.00;63287.88;5006660;28;20131;-56
2022/07/07 08:06:55;;;;;;;404.25;211.90;;;;;;;-140.79;100.00;63287.88;5005346;28;20030;-55
2022/07/07 08:09:20;;;;;;;402.73;208.10;;;;;;;-140.79;100.00;63287.88;5007821;28;20025;-55
2022/07/07 08:11:46;;;;;;;395.92;204.32;;;;;;;-140.79;100.00;63287.88;5010284;28;20025;-52
2022/07/07 08:14:11;;;;;;;437.88;235.00;;;;;;;-140.79;100.00;63287.88;5006615;28;20050;-55
2022/07/07 08:16:37;;;;;;;443.55;235.38;;;;;;;-140.79;100.00;63287.88;5005678;28;20025;-54
2022/07/07 08:19:02;;;;;;;449.35;242.98;;;;;;;-140.79;100.00;63287.88;5003442;28;20718;-54
2022/07/07 08:21:28;;;;;;;446.38;238.60;;;;;;;-140.79;100.00;63287.88;5000864;28;20542;-53
2022/07/07 08:23:53;;;;;;;443.85;237.57;;;;;;;-140.79;100.00;63287.88;5003137;28;20037;-54
2022/07/07 08:26:19;;;;;;;443.75;238.45;;;;;;;-140.79;100.00;63287.88;5012075;28;20036;-55
2022/07/07 08:28:44;;;;;;;445.73;239.68;;;;;;;-140.79;100.00;63287.88;5010026;28;20489;-57
2022/07/07 08:31:10;;;;;;;447.27;240.70;;;;;;;-140.79;100.00;63287.88;5000012;28;20034;-53
2022/07/07 08:33:35;;;;;;;454.10;245.15;;;;;;;-140.79;100.00;63287.88;5015840;28;20036;-53
2022/07/07 08:36:01;;;;;;;444.63;238.55;;;;;;;-140.79;100.00;63287.88;5011081;28;20570;-53
2022/07/07 08:38:26;;;;;;;445.42;238.35;;;;;;;-140.79;100.00;63287.88;5011598;28;20044;-53
2022/07/07 08:40:52;;;;;;;445.70;237.50;;;;;;;-140.79;100.00;63287.88;5016369;28;20060;-53
2022/07/07 08:43:18;;;;;;;452.67;242.63;;;;;;;-140.79;100.00;63287.88;5013336;28;20083;-56
2022/07/07 08:45:45;;;;;;;464.50;253.98;;;;;;;-140.79;100.00;63287.88;5018396;28;20041;-54
2022/07/07 08:48:10;;;;;;;459.63;247.25;;;;;;;-140.79;100.00;63287.88;4997686;28;21044;-54
2022/07/07 08:50:37;;;;;;;471.45;256.38;;;;;;;-140.79;100.00;63287.88;5019873;28;20152;-54
2022/07/07 08:53:02;;;;;;;468.73;255.93;;;;;;;-140.79;100.00;63287.88;4997408;28;20128;-53
2022/07/07 08:55:28;;;;;;;489.73;273.00;;;;;;;-140.79;100.00;63287.88;5017612;28;20032;-56
2022/07/07 08:57:53;;;;;;;481.75;268.30;;;;;;;-140.79;100.00;63287.88;4995696;28;20134;-54
2022/07/07 09:00:19;;;;;;;488.88;271.63;;;;;;;-140.79;100.00;63287.88;5014486;28;20087;-55
2022/07/07 09:02:45;;;;;;;476.73;264.63;;;;;;;-140.79;100.00;63287.88;5019299;28;20140;-55
2022/07/07 09:05:11;;;;;;;482.45;268.13;;;;;;;-140.79;100.00;63287.88;5016149;28;20077;-54
2022/07/07 09:07:52;;;;;;;502.98;287.98;;;;;;;-140.79;100.00;63287.88;5022003;28;20048;-53
2022/07/07 09:10:34;;;;;;;491.52;276.63;;;;;;;-140.79;100.00;63287.88;5022390;28;20037;-53
2022/07/07 09:13:00;;;;;;;487.08;274.23;;;;;;;-140.79;100.00;63287.88;5008550;28;20028;-55
2022/07/07 09:15:25;;;;;;;499.88;283.73;;;;;;;-140.79;100.00;63287.88;5021371;28;20018;-54
2022/07/07 09:17:51;;;;;;;501.95;284.67;;;;;;;-140.79;100.00;63287.88;5020363;28;20040;-54
2022/07/07 09:20:16;;;;;;;500.65;285.45;;;;;;;-140.79;100.00;63287.88;5020988;28;20025;-53
2022/07/07 09:22:42;;;;;;;486.38;272.02;;;;;;;-140.79;100.00;63287.88;5018060;28;20029;-54
2022/07/07 09:25:08;;;;;;;482.10;269.83;;;;;;;-140.79;100.00;63287.88;5021229;28;20479;-55
2022/07/07 09:27:42;;;;;;;491.58;278.85;;;;;;;-140.79;100.00;63287.88;5001183;28;20100;-59
2022/07/07 09:30:09;;;;;;;499.25;283.92;;;;;;;-140.79;100.00;63287.88;4982676;28;20350;-53
2022/07/07 09:32:46;;;;;;;498.58;282.77;;;;;;;-140.79;100.00;63287.88;4990790;28;20112;-58
2022/07/07 09:38:13;;;;;;;493.58;278.25;;;;;;;-140.79;100.00;63287.88;5018762;28;20160;-57
2022/07/07 09:40:59;;;;;;;506.40;288.92;;;;;;;-140.79;100.00;63287.88;5020619;28;20136;-57
2022/07/07 09:43:28;;;;;;;502.65;287.52;;;;;;;-140.79;100.00;63287.88;5015295;28;20021;-57
2022/07/07 09:46:16;;;;;;;501.05;286.70;;;;;;;-140.79;100.00;63287.88;4998547;28;20041;-56
2022/07/07 09:48:49;;;;;;;494.05;280.33;;;;;;;-140.79;100.00;63287.88;5017365;28;20062;-54
2022/07/07 09:51:22;;;;;;;506.60;287.48;;;;;;;-140.79;100.00;63287.88;5017545;28;20025;-54
2022/07/07 09:54:03;;;;;;;509.48;291.95;;;;;;;-140.79;100.00;63287.88;5018446;28;20032;-53
2022/07/07 09:56:36;;;;;;;504.42;287.33;;;;;;;-140.79;100.00;63287.88;5019753;28;20076;-54
2022/07/07 09:59:12;;;;;;;504.48;289.33;;;;;;;-140.79;100.00;63287.88;5021879;28;20131;-56
2022/07/07 10:01:42;;;;;;;506.80;288.60;;;;;;;-140.79;100.00;63287.88;5017697;28;20041;-52
2022/07/07 10:04:08;;;;;;;;;;;;;;;-140.79;100.00;63287.88;5017702;28;20083;-59
2022/07/07 10:06:35;;;;;;;511.58;291.95;;;;;;;-140.79;100.00;63287.88;4998747;28;19925;-57
2022/07/07 10:09:20;;;;;;;512.47;294.73;;;;;;;-140.79;100.00;63287.88;5017938;28;20034;-55
2022/07/07 10:11:47;;;;;;;521.10;300.25;;;;;;;-140.79;100.00;63287.88;5016976;28;20018;-58
2022/07/07 10:14:22;;;;;;;491.10;277.45;;;;;;;-140.79;100.00;63287.88;4979795;28;20021;-54
2022/07/07 10:16:49;;;;;;;489.17;275.30;;;;;;;-140.79;100.00;63287.88;5018773;28;20025;-56
2022/07/07 10:19:16;;;;;;;518.45;297.90;;;;;;;-140.79;100.00;63287.88;5017498;28;20752;-57
2022/07/07 10:21:42;;;;;;;524.70;302.83;;;;;;;-140.79;100.00;63287.88;5018636;28;20055;-57
2022/07/07 10:24:08;;;;;;;514.65;296.05;;;;;;;-140.79;100.00;63287.88;5000314;28;20025;-56
2022/07/07 10:26:41;;;;;;;528.20;308.35;;;;;;;-140.79;100.00;63287.88;4998369;28;20184;-53
2022/07/07 10:29:08;;;;;;;529.63;309.88;;;;;;;-140.79;100.00;63287.88;4999789;28;20052;-53
2022/07/07 10:31:33;;;;;;;519.72;299.50;;;;;;;-140.79;100.00;63287.88;5001573;28;20039;-54
2022/07/07 10:34:08;;;;;;;512.03;293.98;;;;;;;-140.79;100.00;63287.88;5022462;28;20021;-53
2022/07/07 10:37:00;;;;;;;530.35;310.52;;;;;;;-140.79;100.00;63287.88;5021628;28;20033;-53
2022/07/07 10:39:27;;;;;;;538.63;314.13;;;;;;;-140.79;100.00;63287.88;5008576;28;20030;-53
2022/07/07 10:42:04;;;;;;;530.60;309.50;;;;;;;-140.79;100.00;63287.88;5014621;28;20021;-54